createdAt,value
2024-05-09T00:00:18.675Z,101807.75
2024-05-09T00:02:52.960Z,101816.31
2024-05-09T00:05:19.532Z,101809.56
2024-05-09T00:07:46.180Z,101812.59
2024-05-09T00:10:22.246Z,101811.75
2024-05-09T00:12:55.548Z,101819.13
2024-05-09T00:15:22.058Z,101815.06
2024-05-09T00:17:48.660Z,101807.31
2024-05-09T00:20:20.503Z,101802.28
2024-05-09T00:22:51.256Z,101796.19
2024-05-09T00:25:17.906Z,101808.09
2024-05-09T00:27:44.386Z,101804.91
2024-05-09T00:30:17.443Z,101807.59
2024-05-09T00:32:48.189Z,101806.91
2024-05-09T00:35:14.906Z,101804.38
2024-05-09T00:37:41.409Z,101797.66
2024-05-09T00:40:15.090Z,101793.59
2024-05-09T00:42:48.917Z,101794.22
2024-05-09T00:45:15.540Z,101799.59
2024-05-09T00:47:43.386Z,101800.75
2024-05-09T00:50:15.963Z,101802.09
2024-05-09T00:52:49.246Z,101804.06
2024-05-09T00:55:17.009Z,101794.66
2024-05-09T00:57:44.614Z,101795.97
2024-05-09T01:00:22.394Z,101788.03
2024-05-09T01:02:57.033Z,101793.75
2024-05-09T01:05:23.650Z,101793.03
2024-05-09T01:07:50.223Z,101797.75
2024-05-09T01:10:21.297Z,101800.72
2024-05-09T01:12:54.212Z,101802.75
2024-05-09T01:15:20.697Z,101809.09
2024-05-09T01:17:47.369Z,101812.78
2024-05-09T01:20:20.162Z,101809.44
2024-05-09T01:22:54.220Z,101798.81
2024-05-09T01:25:20.768Z,101800.13
2024-05-09T01:27:47.261Z,101793.56
2024-05-09T01:30:17.438Z,101793.84
2024-05-09T01:32:47.944Z,101798.53
2024-05-09T01:35:14.567Z,101786.56
2024-05-09T01:37:41.191Z,101791.09
2024-05-09T01:40:12.293Z,101790.28
2024-05-09T01:42:41.871Z,101790.41
2024-05-09T01:45:09.166Z,101789.72
2024-05-09T01:47:36.106Z,101792.84
2024-05-09T01:50:05.103Z,101779.59
2024-05-09T01:52:38.470Z,101784.25
2024-05-09T01:55:07.226Z,101783.44
2024-05-09T01:57:33.922Z,101785.13
2024-05-09T02:00:00.530Z,101785.56
2024-05-09T02:02:27.148Z,101784.19
2024-05-09T02:04:53.896Z,101787.34
2024-05-09T02:07:20.581Z,101786.81
2024-05-09T02:09:47.092Z,101777.91
2024-05-09T02:12:13.684Z,101782.59
2024-05-09T02:14:40.441Z,101782.72
2024-05-09T02:17:07.106Z,101780.34
2024-05-09T02:19:33.777Z,101777.66
2024-05-09T02:22:00.381Z,101772.44
2024-05-09T02:24:27.070Z,101776.44
2024-05-09T02:26:53.572Z,101785.31
2024-05-09T02:29:20.212Z,101781.91
2024-05-09T02:31:46.877Z,101782.94
2024-05-09T02:34:13.557Z,101777.31
2024-05-09T02:36:40.244Z,101781.00
2024-05-09T02:39:06.780Z,101783.31
2024-05-09T02:41:33.378Z,101774.41
2024-05-09T02:44:00.130Z,101766.50
2024-05-09T02:46:26.678Z,101774.88
2024-05-09T02:48:53.322Z,101780.34
2024-05-09T02:51:19.969Z,101782.06
2024-05-09T02:53:46.508Z,101778.81
2024-05-09T02:56:13.030Z,101774.59
2024-05-09T02:58:39.672Z,101782.81
2024-05-09T03:01:06.239Z,101786.63
2024-05-09T03:03:33.024Z,101780.59
2024-05-09T03:06:01.342Z,101787.63
2024-05-09T03:08:28.022Z,101780.72
2024-05-09T03:10:54.634Z,101775.50
2024-05-09T03:13:21.190Z,101773.81
2024-05-09T03:15:47.735Z,101774.94
2024-05-09T03:18:15.285Z,101774.13
2024-05-09T03:20:44.192Z,101771.03
2024-05-09T03:23:11.090Z,101773.72
2024-05-09T03:25:38.494Z,101780.94
2024-05-09T03:28:05.593Z,101774.56
2024-05-09T03:30:39.915Z,101771.63
2024-05-09T03:33:20.229Z,101779.00
2024-05-09T03:35:49.037Z,101770.25
2024-05-09T03:38:16.183Z,101769.41
2024-05-09T03:40:47.235Z,101765.03
2024-05-09T03:43:14.108Z,101768.56
2024-05-09T03:45:40.742Z,101772.38
2024-05-09T03:48:08.234Z,101771.38
2024-05-09T03:50:36.316Z,101768.00
2024-05-09T03:53:03.883Z,101765.47
2024-05-09T03:55:30.935Z,101776.19
2024-05-09T03:57:57.473Z,101768.00
2024-05-09T04:00:31.318Z,101774.66
2024-05-09T04:03:05.531Z,101770.84
2024-05-09T04:05:33.198Z,101767.47
2024-05-09T04:07:59.859Z,101768.63
2024-05-09T04:10:33.567Z,101771.00
2024-05-09T04:13:01.860Z,101771.84
2024-05-09T04:15:28.531Z,101772.53
2024-05-09T04:17:55.243Z,101767.00
2024-05-09T04:20:32.990Z,101778.59
2024-05-09T04:23:05.995Z,101777.88
2024-05-09T04:25:32.765Z,101779.44
2024-05-09T04:27:59.468Z,101779.84
2024-05-09T04:30:34.800Z,101781.38
2024-05-09T04:33:06.077Z,101787.44
2024-05-09T04:35:33.204Z,101786.16
2024-05-09T04:38:00.462Z,101790.63
2024-05-09T04:40:33.147Z,101783.16
2024-05-09T04:43:03.155Z,101790.75
2024-05-09T04:45:29.964Z,101787.50
2024-05-09T04:47:56.750Z,101789.69
2024-05-09T04:50:32.702Z,101788.41
2024-05-09T04:53:03.447Z,101784.44
2024-05-09T04:55:30.432Z,101797.09
2024-05-09T04:57:57.032Z,101794.94
2024-05-09T05:00:32.377Z,101789.13
2024-05-09T05:03:06.903Z,101790.34
2024-05-09T05:05:34.819Z,101789.13
2024-05-09T05:08:01.413Z,101791.16
2024-05-09T05:10:33.957Z,101786.19
2024-05-09T05:13:17.858Z,101784.91
2024-05-09T05:15:46.385Z,101795.88
2024-05-09T05:18:14.904Z,101805.13
2024-05-09T05:20:41.979Z,101795.47
2024-05-09T05:23:16.386Z,101795.38
2024-05-09T05:25:43.247Z,101799.13
2024-05-09T05:28:10.750Z,101787.94
2024-05-09T05:30:38.189Z,101791.84
2024-05-09T05:33:06.136Z,101793.03
2024-05-09T05:35:33.714Z,101792.78
2024-05-09T05:38:00.508Z,101789.16
2024-05-09T05:40:33.456Z,101795.25
2024-05-09T05:43:11.034Z,101796.19
2024-05-09T05:45:38.962Z,101798.97
2024-05-09T05:48:07.378Z,101798.06
2024-05-09T05:50:37.154Z,101799.94
2024-05-09T05:53:09.364Z,101798.66
2024-05-09T05:55:37.670Z,101798.38
2024-05-09T05:58:04.450Z,101800.78
2024-05-09T06:00:38.171Z,101803.16
2024-05-09T06:03:07.177Z,101808.72
2024-05-09T06:05:35.117Z,101805.50
2024-05-09T06:08:01.912Z,101800.91
2024-05-09T06:10:35.249Z,101812.47
2024-05-09T06:13:05.618Z,101809.59
2024-05-09T06:15:32.169Z,101819.16
2024-05-09T06:17:59.252Z,101817.41
2024-05-09T06:20:34.628Z,101815.19
2024-05-09T06:23:04.885Z,101811.94
2024-05-09T06:25:31.826Z,101818.41
2024-05-09T06:28:00.096Z,101812.97
2024-05-09T06:30:35.303Z,101810.81
2024-05-09T06:33:06.795Z,101806.91
2024-05-09T06:35:34.058Z,101811.41
2024-05-09T06:38:00.966Z,101823.34
2024-05-09T06:40:36.248Z,101824.75
2024-05-09T06:43:10.768Z,101819.84
2024-05-09T06:45:39.456Z,101827.31
2024-05-09T06:48:06.913Z,101818.84
2024-05-09T06:50:37.612Z,101828.00
2024-05-09T06:53:05.746Z,101832.31
2024-05-09T06:55:32.305Z,101820.47
2024-05-09T06:57:59.004Z,101826.09
2024-05-09T07:00:34.442Z,101824.13
2024-05-09T07:03:09.095Z,101824.41
2024-05-09T07:05:36.138Z,101829.81
2024-05-09T07:08:03.640Z,101823.00
2024-05-09T07:10:34.837Z,101822.31
2024-05-09T07:13:02.555Z,101823.63
2024-05-09T07:15:29.083Z,101826.50
2024-05-09T07:17:55.779Z,101829.31
2024-05-09T07:20:31.755Z,101828.28
2024-05-09T07:23:03.045Z,101835.19
2024-05-09T07:25:30.031Z,101832.13
2024-05-09T07:27:56.751Z,101829.72
2024-05-09T07:30:32.531Z,101824.22
2024-05-09T07:33:01.414Z,101821.38
2024-05-09T07:35:28.814Z,101814.16
2024-05-09T07:37:55.501Z,101820.97
2024-05-09T07:40:31.605Z,101816.69
2024-05-09T07:43:05.383Z,101822.00
2024-05-09T07:53:36.024Z,101819.63
2024-05-09T07:55:47.246Z,101826.91
2024-05-09T07:58:13.784Z,101813.59
2024-05-09T08:00:40.450Z,101820.78
2024-05-09T08:03:07.251Z,101825.19
2024-05-09T08:05:33.970Z,101823.22
2024-05-09T08:08:00.656Z,101824.03
2024-05-09T08:10:29.065Z,101817.25
2024-05-09T08:12:56.038Z,101821.13
2024-05-09T08:15:22.636Z,101812.03
2024-05-09T08:17:49.351Z,101820.00
2024-05-09T08:20:26.456Z,101813.00
2024-05-09T08:22:57.335Z,101802.66
2024-05-09T08:25:23.913Z,101802.50
2024-05-09T08:27:50.477Z,101802.16
2024-05-09T08:30:24.665Z,101803.44
2024-05-09T08:32:56.251Z,101808.56
2024-05-09T08:35:22.872Z,101801.53
2024-05-09T08:37:49.982Z,101797.69
2024-05-09T08:40:23.420Z,101805.88
2024-05-09T08:42:56.122Z,101802.59
2024-05-09T08:45:22.751Z,101802.16
2024-05-09T08:47:52.754Z,101804.28
2024-05-09T08:50:31.491Z,101799.75
2024-05-09T08:53:04.348Z,101801.47
2024-05-09T08:55:31.047Z,101798.97
2024-05-09T08:57:59.162Z,101790.84
2024-05-09T09:00:35.613Z,101780.63
2024-05-09T09:03:07.643Z,101789.81
2024-05-09T09:05:38.066Z,101793.16
2024-05-09T09:08:07.572Z,101783.75
2024-05-09T09:10:35.179Z,101784.41
2024-05-09T09:13:04.682Z,101785.25
2024-05-09T09:15:31.937Z,101783.16
2024-05-09T09:18:00.875Z,101778.75
2024-05-09T09:20:35.391Z,101775.13
2024-05-09T09:23:03.667Z,101766.09
2024-05-09T09:25:30.397Z,101767.34
2024-05-09T09:27:58.648Z,101762.72
2024-05-09T09:30:35.008Z,101765.13
2024-05-09T09:33:05.101Z,101758.78
2024-05-09T09:35:32.632Z,101764.41
2024-05-09T09:38:02.801Z,101759.59
2024-05-09T09:40:36.228Z,101764.38
2024-05-09T09:43:13.830Z,101769.41
2024-05-09T09:45:43.660Z,101756.38
2024-05-09T09:48:12.000Z,101759.19
2024-05-09T09:50:40.052Z,101751.13
2024-05-09T09:53:08.154Z,101757.34
2024-05-09T09:55:35.571Z,101752.41
2024-05-09T09:58:04.253Z,101750.25
2024-05-09T10:00:33.599Z,101747.34
2024-05-09T10:03:01.608Z,101744.50
2024-05-09T10:05:29.098Z,101732.56
2024-05-09T10:07:57.365Z,101739.56
2024-05-09T10:10:31.802Z,101741.31
2024-05-09T10:13:08.953Z,101740.13
2024-05-09T10:15:54.599Z,101742.78
2024-05-09T10:18:27.280Z,101735.56
2024-05-09T10:20:56.188Z,101731.63
2024-05-09T10:23:27.529Z,101732.06
2024-05-09T10:26:01.045Z,101732.75
2024-05-09T10:28:32.352Z,101722.81
2024-05-09T10:31:13.269Z,101726.22
2024-05-09T10:33:46.138Z,101714.50
2024-05-09T10:36:26.380Z,101708.66
2024-05-09T10:38:54.240Z,101712.00
2024-05-09T10:41:21.942Z,101714.16
2024-05-09T10:43:48.933Z,101708.03
2024-05-09T10:46:16.815Z,101694.44
2024-05-09T10:48:44.297Z,101697.56
2024-05-09T10:51:11.613Z,101691.59
2024-05-09T10:53:46.103Z,101686.38
2024-05-09T10:56:17.029Z,101687.34
2024-05-09T10:58:44.053Z,101679.97
2024-05-09T11:01:10.983Z,101681.16
2024-05-09T11:03:39.095Z,101682.69
2024-05-09T11:06:06.530Z,101677.22
2024-05-09T11:08:34.652Z,101673.91
2024-05-09T11:11:03.065Z,101670.78
2024-05-09T11:13:31.556Z,101670.66
2024-05-09T11:15:59.286Z,101661.47
2024-05-09T11:18:30.642Z,101666.63
2024-05-09T11:21:00.295Z,101662.22
2024-05-09T11:23:30.010Z,101657.66
2024-05-09T11:25:58.249Z,101660.03
2024-05-09T11:28:26.985Z,101663.53
2024-05-09T11:31:05.287Z,101656.88
2024-05-09T11:33:32.045Z,101645.03
2024-05-09T11:35:58.696Z,101650.66
2024-05-09T11:38:25.231Z,101646.41
2024-05-09T11:40:51.845Z,101637.88
2024-05-09T11:43:18.531Z,101644.03
2024-05-09T11:45:45.146Z,101635.28
2024-05-09T11:48:11.814Z,101635.97
2024-05-09T11:50:38.949Z,101639.66
2024-05-09T11:53:06.384Z,101641.41
2024-05-09T11:55:36.685Z,101633.44
2024-05-09T11:58:04.237Z,101634.88
2024-05-09T12:00:36.648Z,101624.72
2024-05-09T12:03:05.696Z,101627.97
2024-05-09T12:05:34.003Z,101620.97
2024-05-09T12:08:01.353Z,101616.41
2024-05-09T12:10:33.287Z,101607.88
2024-05-09T12:13:03.494Z,101614.47
2024-05-09T12:15:31.635Z,101618.28
2024-05-09T12:18:00.246Z,101605.41
2024-05-09T12:20:36.179Z,101605.16
2024-05-09T12:23:06.063Z,101600.66
2024-05-09T12:25:32.809Z,101595.97
2024-05-09T12:27:59.575Z,101591.38
2024-05-09T12:30:35.311Z,101590.03
2024-05-09T12:33:05.832Z,101586.75
2024-05-09T12:35:32.692Z,101587.78
2024-05-09T12:37:59.243Z,101580.09
2024-05-09T12:40:34.409Z,101577.28
2024-05-09T12:43:04.841Z,101574.66
2024-05-09T12:45:31.870Z,101564.81
2024-05-09T12:47:58.696Z,101572.13
2024-05-09T12:50:31.816Z,101567.94
2024-05-09T12:53:00.352Z,101574.00
2024-05-09T12:55:28.116Z,101565.19
2024-05-09T12:57:55.304Z,101569.91
2024-05-09T13:00:28.172Z,101556.31
2024-05-09T13:03:00.344Z,101554.34
2024-05-09T13:05:27.375Z,101551.50
2024-05-09T13:07:54.116Z,101555.25
2024-05-09T13:10:28.999Z,101555.59
2024-05-09T13:12:59.269Z,101550.59
2024-05-09T13:15:25.929Z,101550.34
2024-05-09T13:17:52.882Z,101551.84
2024-05-09T13:20:28.881Z,101543.69
2024-05-09T13:23:01.867Z,101544.28
2024-05-09T13:25:28.477Z,101537.25
2024-05-09T13:27:55.860Z,101533.66
2024-05-09T13:30:29.605Z,101532.19
2024-05-09T13:33:05.262Z,101531.16
2024-05-09T13:35:34.196Z,101536.94
2024-05-09T13:38:02.117Z,101526.28
2024-05-09T13:40:33.666Z,101527.56
2024-05-09T13:43:03.137Z,101523.97
2024-05-09T13:45:29.930Z,101527.59
2024-05-09T13:47:56.984Z,101514.34
2024-05-09T13:50:31.603Z,101524.78
2024-05-09T13:53:02.088Z,101516.72
2024-05-09T13:55:28.795Z,101522.47
2024-05-09T13:57:55.942Z,101519.41
2024-05-09T14:00:32.489Z,101512.50
2024-05-09T14:03:09.804Z,101502.50
2024-05-09T14:05:36.668Z,101501.50
2024-05-09T14:08:03.433Z,101504.78
2024-05-09T14:10:31.920Z,101504.22
2024-05-09T14:12:59.697Z,101498.50
2024-05-09T14:15:26.275Z,101492.09
2024-05-09T14:17:53.305Z,101491.34
2024-05-09T14:20:29.894Z,101490.88
2024-05-09T14:22:58.843Z,101493.84
2024-05-09T14:25:28.201Z,101487.97
2024-05-09T14:27:55.051Z,101488.34
2024-05-09T14:30:30.324Z,101485.34
2024-05-09T14:33:02.767Z,101483.31
2024-05-09T14:35:29.424Z,101477.38
2024-05-09T14:37:55.992Z,101478.25
2024-05-09T14:40:35.737Z,101468.41
2024-05-09T14:43:07.700Z,101468.03
2024-05-09T14:45:34.629Z,101471.56
2024-05-09T14:48:02.234Z,101466.59
2024-05-09T14:50:35.461Z,101465.59
2024-05-09T14:53:06.194Z,101467.88
2024-05-09T14:55:35.767Z,101462.31
2024-05-09T14:58:03.399Z,101462.66
2024-05-09T15:00:35.613Z,101461.69
2024-05-09T15:03:03.991Z,101455.19
2024-05-09T15:05:30.699Z,101457.69
2024-05-09T15:07:58.029Z,101454.59
2024-05-09T15:10:33.711Z,101450.28
2024-05-09T15:13:02.603Z,101447.66
2024-05-09T15:15:29.345Z,101444.72
2024-05-09T15:17:56.130Z,101438.81
2024-05-09T15:20:31.031Z,101438.06
2024-05-09T15:23:02.102Z,101437.78
2024-05-09T15:25:28.884Z,101437.22
2024-05-09T15:27:55.577Z,101428.84
2024-05-09T15:30:29.584Z,101418.44
2024-05-09T15:32:58.500Z,101423.56
2024-05-09T15:35:25.083Z,101413.69
2024-05-09T15:37:51.724Z,101409.22
2024-05-09T15:40:26.433Z,101415.28
2024-05-09T15:43:02.318Z,101409.28
2024-05-09T15:45:29.296Z,101411.06
2024-05-09T15:47:57.241Z,101402.97
2024-05-09T15:50:35.330Z,101404.09
2024-05-09T15:53:06.458Z,101395.75
2024-05-09T15:55:34.395Z,101406.09
2024-05-09T15:58:02.302Z,101393.59
2024-05-09T16:00:37.318Z,101394.25
2024-05-09T16:03:07.959Z,101400.38
2024-05-09T16:05:34.728Z,101401.09
2024-05-09T16:08:01.407Z,101390.72
2024-05-09T16:10:32.661Z,101386.31
2024-05-09T16:13:01.253Z,101395.66
2024-05-09T16:15:27.998Z,101383.59
2024-05-09T16:17:55.311Z,101385.84
2024-05-09T16:20:33.919Z,101385.59
2024-05-09T16:23:06.376Z,101386.81
2024-05-09T16:25:33.219Z,101378.72
2024-05-09T16:28:00.124Z,101386.84
2024-05-09T16:30:33.907Z,101380.13
2024-05-09T16:33:03.382Z,101378.59
2024-05-09T16:35:30.530Z,101374.50
2024-05-09T16:37:57.303Z,101378.06
2024-05-09T16:40:33.051Z,101374.44
2024-05-09T16:43:04.835Z,101376.94
2024-05-09T16:45:31.945Z,101374.09
2024-05-09T16:48:00.072Z,101371.41
2024-05-09T16:50:32.383Z,101369.66
2024-05-09T16:53:01.104Z,101366.06
2024-05-09T16:55:27.982Z,101374.34
2024-05-09T16:57:55.506Z,101368.13
2024-05-09T17:00:31.667Z,101376.69
2024-05-09T17:03:07.215Z,101370.41
2024-05-09T17:05:34.631Z,101374.94
2024-05-09T17:08:01.615Z,101373.88
2024-05-09T17:10:32.891Z,101373.81
2024-05-09T17:13:01.834Z,101371.91
2024-05-09T17:15:28.663Z,101374.88
2024-05-09T17:17:55.863Z,101366.19
2024-05-09T17:20:29.666Z,101368.72
2024-05-09T17:23:01.610Z,101367.69
2024-05-09T17:25:28.362Z,101363.53
2024-05-09T17:27:55.272Z,101365.25
2024-05-09T17:30:29.042Z,101360.88
2024-05-09T17:33:02.156Z,101361.69
2024-05-09T17:35:29.052Z,101363.75
2024-05-09T17:37:55.850Z,101368.88
2024-05-09T17:40:30.872Z,101360.19
2024-05-09T17:43:01.624Z,101367.84
2024-05-09T17:45:28.507Z,101355.41
2024-05-09T17:47:55.314Z,101362.44
2024-05-09T17:50:27.951Z,101361.56
2024-05-09T17:53:03.229Z,101357.88
2024-05-09T17:55:30.018Z,101353.25
2024-05-09T17:57:56.974Z,101358.84
2024-05-09T18:00:33.373Z,101360.72
2024-05-09T18:03:06.243Z,101359.50
2024-05-09T18:05:33.198Z,101350.94
2024-05-09T18:08:07.067Z,101366.91
2024-05-09T18:10:37.879Z,101366.50
2024-05-09T18:13:07.573Z,101364.13
2024-05-09T18:15:34.416Z,101364.22
2024-05-09T18:18:02.388Z,101367.38
2024-05-09T18:20:38.019Z,101358.94
2024-05-09T18:23:10.632Z,101362.44
2024-05-09T18:25:37.357Z,101361.22
2024-05-09T18:28:04.501Z,101360.59
2024-05-09T18:30:34.599Z,101361.31
2024-05-09T18:33:03.446Z,101350.44
2024-05-09T18:35:30.188Z,101359.28
2024-05-09T18:37:56.818Z,101359.94
2024-05-09T18:42:52.789Z,101356.75
2024-05-09T18:45:19.348Z,101361.16
2024-05-09T18:47:46.038Z,101362.38
2024-05-09T18:50:17.725Z,101369.16
2024-05-09T18:52:51.378Z,101371.09
2024-05-09T18:55:17.947Z,101375.47
2024-05-09T18:57:44.635Z,101372.19
2024-05-09T19:00:22.704Z,101367.31
2024-05-09T19:02:57.054Z,101373.69
2024-05-09T19:05:23.825Z,101379.63
2024-05-09T19:07:50.481Z,101379.13
2024-05-09T19:10:22.577Z,101379.91
2024-05-09T19:12:52.634Z,101385.34
2024-05-09T19:15:19.138Z,101386.94
2024-05-09T19:17:46.317Z,101388.19
2024-05-09T19:20:24.683Z,101395.97
2024-05-09T19:22:55.337Z,101392.88
2024-05-09T19:25:21.874Z,101387.84
2024-05-09T19:27:48.519Z,101390.28
2024-05-09T19:30:24.955Z,101388.75
2024-05-09T19:33:00.065Z,101398.75
2024-05-09T19:35:26.619Z,101406.19
2024-05-09T19:37:53.224Z,101402.75
2024-05-09T19:40:28.517Z,101408.06
2024-05-09T19:42:58.219Z,101405.66
2024-05-09T19:45:24.861Z,101405.53
2024-05-09T19:47:51.691Z,101413.13
2024-05-09T19:50:26.637Z,101407.97
2024-05-09T19:52:59.295Z,101404.69
2024-05-09T19:55:25.865Z,101401.81
2024-05-09T19:57:52.470Z,101406.28
2024-05-09T20:00:26.012Z,101409.88
2024-05-09T20:02:56.343Z,101405.94
2024-05-09T20:05:23.542Z,101409.09
2024-05-09T20:07:50.169Z,101411.63
2024-05-09T20:10:23.637Z,101410.38
2024-05-09T20:12:53.755Z,101424.41
2024-05-09T20:15:20.393Z,101421.03
2024-05-09T20:17:47.297Z,101425.22
2024-05-09T20:20:24.509Z,101427.50
2024-05-09T20:22:59.802Z,101426.88
2024-05-09T20:25:26.434Z,101428.75
2024-05-09T20:27:53.041Z,101431.66
2024-05-09T20:30:28.963Z,101436.66
2024-05-09T20:32:59.970Z,101422.22
2024-05-09T20:35:26.835Z,101434.31
2024-05-09T20:37:53.514Z,101433.66
2024-05-09T20:40:28.318Z,101429.47
2024-05-09T20:42:58.839Z,101428.22
2024-05-09T20:45:25.533Z,101421.09
2024-05-09T20:47:52.265Z,101428.34
2024-05-09T20:50:27.996Z,101422.09
2024-05-09T20:53:02.618Z,101430.19
2024-05-09T20:55:30.027Z,101427.41
2024-05-09T20:57:56.968Z,101415.75
2024-05-09T21:00:30.272Z,101421.72
2024-05-09T21:03:05.816Z,101417.91
2024-05-09T21:05:32.951Z,101414.97
2024-05-09T21:07:59.607Z,101413.06
2024-05-09T21:10:27.268Z,101421.75
2024-05-09T21:12:56.377Z,101421.72
2024-05-09T21:15:22.978Z,101424.19
2024-05-09T21:17:49.620Z,101423.53
2024-05-09T21:20:20.466Z,101421.00
2024-05-09T21:22:50.711Z,101417.22
2024-05-09T21:25:17.268Z,101418.81
2024-05-09T21:27:43.904Z,101422.31
2024-05-09T21:30:16.046Z,101425.81
2024-05-09T21:32:49.264Z,101433.84
2024-05-09T21:35:17.435Z,101426.53
2024-05-09T21:37:44.034Z,101425.81
2024-05-09T21:40:13.993Z,101429.50
2024-05-09T21:42:48.676Z,101432.97
2024-05-09T21:45:15.256Z,101430.81
2024-05-09T21:47:42.245Z,101434.31
2024-05-09T21:50:12.505Z,101422.59
2024-05-09T21:52:41.826Z,101426.72
2024-05-09T21:55:08.653Z,101422.72
2024-05-09T21:57:35.270Z,101420.78
2024-05-09T22:00:01.821Z,101419.69
2024-05-09T22:02:28.451Z,101410.94
2024-05-09T22:04:55.265Z,101415.25
2024-05-09T22:07:21.996Z,101412.41
2024-05-09T22:09:48.992Z,101413.81
2024-05-09T22:12:15.498Z,101418.59
2024-05-09T22:14:42.005Z,101416.84
2024-05-09T22:17:08.872Z,101420.91
2024-05-09T22:19:35.663Z,101420.47
2024-05-09T22:22:02.305Z,101417.03
2024-05-09T22:24:28.813Z,101416.56
2024-05-09T22:26:55.326Z,101422.16
2024-05-09T22:29:21.811Z,101422.06
2024-05-09T22:31:48.276Z,101421.94
2024-05-09T22:34:14.982Z,101424.38
2024-05-09T22:36:41.556Z,101416.47
2024-05-09T22:39:08.065Z,101421.38
2024-05-09T22:41:34.596Z,101417.41
2024-05-09T22:44:02.327Z,101418.59
2024-05-09T22:46:28.971Z,101419.81
2024-05-09T22:48:55.691Z,101414.81
2024-05-09T22:51:22.227Z,101419.91
2024-05-09T22:53:48.710Z,101415.06
2024-05-09T22:56:15.225Z,101416.44
2024-05-09T22:58:41.726Z,101415.78
2024-05-09T23:01:14.462Z,101425.28
2024-05-09T23:03:41.242Z,101424.97
2024-05-09T23:06:08.256Z,101428.88
2024-05-09T23:08:34.767Z,101415.97
2024-05-09T23:11:01.493Z,101424.59
2024-05-09T23:13:28.106Z,101424.09
2024-05-09T23:15:54.749Z,101425.50
2024-05-09T23:18:21.351Z,101419.63
2024-05-09T23:20:47.930Z,101422.69
2024-05-09T23:23:14.464Z,101421.38
2024-05-09T23:25:41.782Z,101417.34
2024-05-09T23:28:08.940Z,101422.28
2024-05-09T23:30:39.073Z,101415.56
2024-05-09T23:33:09.311Z,101417.63
2024-05-09T23:35:36.056Z,101416.31
2024-05-09T23:38:02.766Z,101413.78
2024-05-09T23:40:37.860Z,101404.22
2024-05-09T23:43:08.186Z,101409.13
2024-05-09T23:45:35.086Z,101410.31
2024-05-09T23:48:02.584Z,101412.53
2024-05-09T23:50:34.788Z,101407.50
2024-05-09T23:53:04.777Z,101407.22
2024-05-09T23:55:32.084Z,101411.25
2024-05-09T23:57:59.181Z,101411.63
